UAL4TW KLAX-KMMH
Flight info
| Callsign | UAL4TW |
|---|---|
| Flight time | N/A |
| Altitude | 34000 |
| Route | |
| Aircraft | CRJ7/M-VGDW/C |
Departure
| Time | 2026-04-26 16:43 |
|---|---|
| Airport | Los Angeles International Airport (KLAX) |
Arrival
| Time | N/A |
|---|---|
| Airport | Mammoth Yosemite Airport (KMMH) |
| Time | Latitude | Longitude | Altitude | Speed | Heading |
|---|---|---|---|---|---|
| 2026-04-26 16:36 | 33.94689 | -118.40014 | 121 ft | 0 kts | 0° |
| 2026-04-26 16:37 | 33.94702 | -118.40014 | 122 ft | 3 kts | 0° |
| 2026-04-26 16:38 | 33.94735 | -118.40014 | 122 ft | 6 kts | 0° |
| 2026-04-26 16:38 | 33.94760 | -118.40013 | 121 ft | 4 kts | 5° |
| 2026-04-26 16:38 | 33.94794 | -118.40010 | 124 ft | 4 kts | 4° |
| 2026-04-26 16:38 | 33.94804 | -118.40009 | 122 ft | 0 kts | 4° |
| 2026-04-26 16:39 | 33.94805 | -118.40009 | 122 ft | 0 kts | 3° |
| 2026-04-26 16:39 | 33.94813 | -118.40009 | 121 ft | 2 kts | 353° |
| 2026-04-26 16:39 | 33.94835 | -118.40022 | 123 ft | 5 kts | 315° |
| 2026-04-26 16:39 | 33.94852 | -118.40062 | 122 ft | 5 kts | 304° |
| 2026-04-26 16:40 | 33.94889 | -118.40079 | 121 ft | 7 kts | 4° |
| 2026-04-26 16:40 | 33.94922 | -118.40056 | 121 ft | 6 kts | 66° |
| 2026-04-26 16:40 | 33.94929 | -118.39999 | 124 ft | 8 kts | 82° |
| 2026-04-26 16:40 | 33.94950 | -118.39927 | 120 ft | 9 kts | 51° |
| 2026-04-26 16:41 | 33.94955 | -118.39920 | 122 ft | 0 kts | 43° |
| 2026-04-26 16:41 | 33.94958 | -118.39917 | 123 ft | 1 kts | 36° |
| 2026-04-26 16:42 | 33.94978 | -118.39912 | 121 ft | 5 kts | 358° |
| 2026-04-26 16:42 | 33.95022 | -118.39927 | 122 ft | 8 kts | 328° |
| 2026-04-26 16:42 | 33.95038 | -118.39985 | 122 ft | 2 kts | 268° |
| 2026-04-26 16:42 | 33.95038 | -118.39994 | 121 ft | 6 kts | 263° |
| 2026-04-26 16:43 | 33.95026 | -118.40104 | 124 ft | 32 kts | 263° |
| 2026-04-26 16:43 | 33.94964 | -118.40716 | 122 ft | 114 kts | 263° |
| 2026-04-26 16:43 | 33.94836 | -118.41911 | 328 ft | 160 kts | 261° |
| 2026-04-26 16:43 | 33.94662 | -118.43190 | 1405 ft | 151 kts | 263° |
| 2026-04-26 16:44 | 33.94541 | -118.44457 | 2195 ft | 151 kts | 264° |
| 2026-04-26 16:44 | 33.94413 | -118.45670 | 2806 ft | 157 kts | 263° |
| 2026-04-26 16:44 | 33.94322 | -118.47001 | 3358 ft | 158 kts | 268° |
| 2026-04-26 16:44 | 33.94257 | -118.48278 | 4044 ft | 155 kts | 269° |
| 2026-04-26 16:45 | 33.94258 | -118.49610 | 4552 ft | 160 kts | 272° |
| 2026-04-26 16:45 | 33.94236 | -118.51045 | 4853 ft | 181 kts | 270° |
| 2026-04-26 16:45 | 33.94237 | -118.52608 | 5188 ft | 197 kts | 269° |
| 2026-04-26 16:45 | 33.94087 | -118.54333 | 5217 ft | 225 kts | 265° |
| 2026-04-26 16:46 | 33.93906 | -118.56297 | 5474 ft | 246 kts | 265° |
| 2026-04-26 16:46 | 33.93706 | -118.58427 | 5959 ft | 264 kts | 265° |
| 2026-04-26 16:46 | 33.93531 | -118.60666 | 6752 ft | 269 kts | 269° |
| 2026-04-26 16:46 | 33.93619 | -118.62159 | 7132 ft | 279 kts | 281° |
| 2026-04-26 16:47 | 33.93993 | -118.63519 | 7341 ft | 292 kts | 295° |
| 2026-04-26 16:47 | 33.95270 | -118.65411 | 8020 ft | 303 kts | 319° |